createdAt,value
2016-01-29T00:00:01.214Z,54.67
2016-01-29T00:01:01.278Z,54.57
2016-01-29T00:02:01.329Z,54.67
2016-01-29T00:03:01.394Z,54.86
2016-01-29T00:04:01.443Z,54.67
2016-01-29T00:05:01.493Z,54.38
2016-01-29T00:06:01.563Z,54.67
2016-01-29T00:07:01.612Z,54.47
2016-01-29T00:08:01.693Z,54.67
2016-01-29T00:09:01.727Z,54.77
2016-01-29T00:10:01.791Z,54.67
2016-01-29T00:11:01.841Z,54.67
2016-01-29T00:12:01.887Z,54.77
2016-01-29T00:13:01.954Z,54.19
2016-01-29T00:14:02.003Z,54.77
2016-01-29T00:15:02.067Z,54.86
2016-01-29T00:16:02.134Z,54.67
2016-01-29T00:17:02.182Z,54.67
2016-01-29T00:18:02.233Z,54.67
2016-01-29T00:19:02.299Z,54.19
2016-01-29T00:20:02.364Z,54.77
2016-01-29T00:21:02.413Z,54.57
2016-01-29T00:22:02.463Z,54.67
2016-01-29T00:23:02.545Z,54.67
2016-01-29T00:24:02.578Z,54.77
2016-01-29T00:25:02.644Z,54.67
2016-01-29T00:26:02.695Z,54.38
2016-01-29T00:27:02.746Z,54.57
2016-01-29T00:28:02.810Z,54.67
2016-01-29T00:29:02.861Z,54.77
2016-01-29T00:30:02.927Z,54.57
2016-01-29T00:31:02.825Z,54.38
2016-01-29T00:32:03.030Z,54.57
2016-01-29T00:33:03.096Z,54.77
2016-01-29T00:34:03.177Z,54.77
2016-01-29T00:35:03.195Z,54.67
2016-01-29T00:36:03.249Z,54.67
2016-01-29T00:37:03.315Z,54.57
2016-01-29T00:38:03.366Z,54.38
2016-01-29T00:39:03.431Z,54.67
2016-01-29T00:40:03.499Z,54.57
2016-01-29T00:41:03.534Z,54.67
2016-01-29T00:42:03.598Z,54.57
2016-01-29T00:43:03.649Z,54.77
2016-01-29T00:44:03.713Z,54.57
2016-01-29T00:45:03.762Z,54.67
2016-01-29T00:46:03.813Z,54.57
2016-01-29T00:47:03.893Z,54.57
2016-01-29T00:48:03.991Z,54.67
2016-01-29T00:49:03.993Z,54.67
2016-01-29T00:50:04.075Z,54.67
2016-01-29T00:51:04.108Z,54.77
2016-01-29T00:52:04.160Z,54.57
2016-01-29T00:53:04.070Z,54.67
2016-01-29T00:54:04.276Z,54.57
2016-01-29T00:55:04.340Z,54.77
2016-01-29T00:56:04.390Z,54.67
2016-01-29T00:57:04.437Z,54.57
2016-01-29T00:58:04.503Z,54.38
2016-01-29T00:59:04.569Z,54.47
2016-01-29T01:00:04.619Z,54.67
2016-01-29T01:01:04.669Z,54.38
2016-01-29T01:02:04.733Z,54.38
2016-01-29T01:03:04.830Z,54.67
2016-01-29T01:04:04.850Z,54.47
2016-01-29T01:05:04.898Z,54.28
2016-01-29T01:06:04.948Z,54.28
2016-01-29T01:07:05.014Z,54.86
2016-01-29T01:08:05.096Z,54.47
2016-01-29T01:09:05.113Z,54.86
2016-01-29T01:10:05.195Z,54.96
2016-01-29T01:11:05.260Z,54.96
2016-01-29T01:12:05.295Z,54.47
2016-01-29T01:13:05.361Z,54.77
2016-01-29T01:14:05.411Z,54.67
2016-01-29T01:15:05.461Z,54.67
2016-01-29T01:16:05.511Z,54.67
2016-01-29T01:17:05.577Z,54.67
2016-01-29T01:18:05.641Z,54.96
2016-01-29T01:19:05.691Z,54.96
2016-01-29T01:20:05.741Z,55.05
2016-01-29T01:21:05.808Z,55.15
2016-01-29T01:22:05.872Z,54.77
2016-01-29T01:23:05.922Z,55.05
2016-01-29T01:24:05.973Z,54.86
2016-01-29T01:25:06.037Z,55.05
2016-01-29T01:26:06.087Z,54.96
2016-01-29T01:27:06.137Z,54.86
2016-01-29T01:28:06.203Z,54.86
2016-01-29T01:29:06.252Z,54.64
2016-01-29T01:30:06.318Z,55.02
2016-01-29T01:31:06.368Z,55.02
2016-01-29T01:32:06.434Z,54.74
2016-01-29T01:33:06.483Z,54.64
2016-01-29T01:34:06.377Z,54.93
2016-01-29T01:35:06.599Z,55.12
2016-01-29T01:36:06.664Z,55.02
2016-01-29T01:37:06.714Z,55.44
2016-01-29T01:38:06.794Z,54.86
2016-01-29T01:39:06.828Z,54.93
2016-01-29T01:40:06.878Z,54.86
2016-01-29T01:41:06.945Z,55.02
2016-01-29T01:42:06.993Z,55.02
2016-01-29T01:43:07.043Z,54.83
2016-01-29T01:44:07.110Z,54.74
2016-01-29T01:45:07.160Z,54.74
2016-01-29T01:46:07.210Z,54.83
2016-01-29T01:47:07.274Z,54.45
2016-01-29T01:48:07.327Z,55.02
2016-01-29T01:49:07.392Z,54.83
2016-01-29T01:50:07.457Z,55.12
2016-01-29T01:51:07.491Z,55.24
2016-01-29T01:52:07.557Z,55.24
2016-01-29T01:53:07.621Z,55.22
2016-01-29T01:54:07.687Z,54.93
2016-01-29T01:55:07.737Z,54.96
2016-01-29T01:56:07.786Z,54.64
2016-01-29T01:57:07.837Z,55.22
2016-01-29T01:58:07.903Z,55.12
2016-01-29T01:59:07.953Z,54.74
2016-01-29T02:00:08.001Z,54.74
2016-01-29T02:01:08.068Z,54.86
2016-01-29T02:02:08.117Z,54.93
2016-01-29T02:03:08.171Z,54.74
2016-01-29T02:04:08.237Z,54.77
2016-01-29T02:05:08.287Z,54.83
2016-01-29T02:06:08.336Z,54.74
2016-01-29T02:07:08.401Z,54.67
2016-01-29T02:08:08.467Z,54.64
2016-01-29T02:09:08.517Z,54.45
2016-01-29T02:10:08.569Z,54.57
2016-01-29T02:11:08.635Z,54.55
2016-01-29T02:12:08.685Z,54.45
2016-01-29T02:13:08.735Z,54.25
2016-01-29T02:14:08.644Z,54.35
2016-01-29T02:15:08.849Z,54.45
2016-01-29T02:16:08.900Z,54.74
2016-01-29T02:17:08.964Z,54.74
2016-01-29T02:18:09.031Z,54.55
2016-01-29T02:19:09.081Z,54.55
2016-01-29T02:20:09.145Z,54.45
2016-01-29T02:21:09.195Z,54.47
2016-01-29T02:22:09.245Z,54.64
2016-01-29T02:23:09.311Z,54.35
2016-01-29T02:24:09.360Z,54.35
2016-01-29T02:25:09.426Z,54.45
2016-01-29T02:26:09.477Z,54.35
2016-01-29T02:27:09.526Z,54.45
2016-01-29T02:28:09.575Z,54.45
2016-01-29T02:29:09.658Z,54.64
2016-01-29T02:30:09.693Z,54.16
2016-01-29T02:31:09.758Z,54.35
2016-01-29T02:32:09.808Z,55.12
2016-01-29T02:33:09.857Z,54.35
2016-01-29T02:34:09.925Z,54.35
2016-01-29T02:35:10.005Z,54.74
2016-01-29T02:36:10.040Z,54.45
2016-01-29T02:37:10.104Z,54.64
2016-01-29T02:38:10.154Z,54.74
2016-01-29T02:39:10.204Z,55.22
2016-01-29T02:40:10.270Z,54.64
2016-01-29T02:41:10.319Z,55.12
2016-01-29T02:42:10.214Z,54.93
2016-01-29T02:43:10.450Z,55.12
2016-01-29T02:44:10.485Z,55.02
2016-01-29T02:45:10.535Z,54.93
2016-01-29T02:46:10.600Z,55.22
2016-01-29T02:47:10.650Z,55.22
2016-01-29T02:48:10.714Z,55.02
2016-01-29T02:49:10.764Z,54.83
2016-01-29T02:50:10.831Z,54.93
2016-01-29T02:51:10.881Z,54.93
2016-01-29T02:52:10.945Z,54.93
2016-01-29T02:53:11.011Z,54.64
2016-01-29T02:54:11.062Z,55.51
2016-01-29T02:55:11.110Z,55.22
2016-01-29T02:56:11.176Z,55.22
2016-01-29T02:57:11.227Z,55.02
2016-01-29T02:58:11.278Z,55.22
2016-01-29T02:59:11.326Z,55.22
2016-01-29T03:00:11.408Z,55.32
2016-01-29T03:01:11.442Z,55.32
2016-01-29T03:02:11.496Z,55.22
2016-01-29T03:03:11.576Z,55.51
2016-01-29T03:04:11.627Z,55.32
2016-01-29T03:05:11.675Z,55.6
2016-01-29T03:06:11.742Z,55.02
2016-01-29T03:07:11.792Z,55.6
2016-01-29T03:08:11.857Z,55.79
2016-01-29T03:09:11.906Z,55.51
2016-01-29T03:10:11.973Z,55.41
2016-01-29T03:11:12.024Z,55.22
2016-01-29T03:12:12.072Z,55.12
2016-01-29T03:13:12.122Z,55.79
2016-01-29T03:14:12.191Z,55.79
2016-01-29T03:15:12.255Z,55.89
2016-01-29T03:16:12.289Z,55.6
2016-01-29T03:17:12.433Z,55.51
2016-01-29T03:18:12.406Z,55.89
2016-01-29T03:19:12.470Z,55.89
2016-01-29T03:20:12.364Z,55.89
2016-01-29T03:21:12.570Z,55.79
2016-01-29T03:22:12.637Z,55.79
2016-01-29T03:23:12.703Z,55.12
2016-01-29T03:24:12.767Z,55.99
2016-01-29T03:25:12.802Z,55.89
2016-01-29T03:26:12.867Z,55.99
2016-01-29T03:27:12.900Z,55.6
2016-01-29T03:28:12.973Z,55.79
2016-01-29T03:29:13.023Z,55.79
2016-01-29T03:30:13.087Z,55.32
2016-01-29T03:31:13.137Z,55.51
2016-01-29T03:32:13.203Z,55.51
2016-01-29T03:33:13.268Z,55.51
2016-01-29T03:34:13.318Z,55.89
2016-01-29T03:35:13.367Z,55.79
2016-01-29T03:36:13.417Z,55.02
2016-01-29T03:37:13.483Z,56.08
2016-01-29T03:38:13.533Z,55.69
2016-01-29T03:39:13.600Z,55.41
2016-01-29T03:40:13.648Z,55.79
2016-01-29T03:41:13.699Z,55.89
2016-01-29T03:42:13.780Z,56.08
2016-01-29T03:43:13.815Z,55.6
2016-01-29T03:44:13.863Z,55.51
2016-01-29T03:45:13.946Z,55.51
2016-01-29T03:46:13.980Z,55.99
2016-01-29T03:47:14.044Z,55.89
2016-01-29T03:48:14.094Z,56.08
2016-01-29T03:49:14.162Z,55.89
2016-01-29T03:50:14.212Z,55.22
2016-01-29T03:51:14.277Z,55.89
2016-01-29T03:52:14.327Z,56.18
2016-01-29T03:53:14.383Z,55.99
2016-01-29T03:54:14.432Z,55.89
2016-01-29T03:55:14.498Z,56.08
2016-01-29T03:56:14.548Z,55.89
2016-01-29T03:57:14.597Z,55.32
2016-01-29T03:58:14.663Z,55.99
2016-01-29T03:59:14.712Z,55.51
2016-01-29T04:00:14.778Z,55.99
2016-01-29T04:01:14.815Z,55.6
2016-01-29T04:02:14.895Z,55.89
2016-01-29T04:03:14.946Z,55.6
2016-01-29T04:04:14.838Z,55.79
2016-01-29T04:05:15.045Z,56.08
2016-01-29T04:06:15.127Z,55.69
2016-01-29T04:07:15.175Z,55.79
2016-01-29T04:08:15.210Z,55.6
2016-01-29T04:09:15.275Z,55.6
2016-01-29T04:10:15.341Z,55.6
2016-01-29T04:11:15.391Z,55.79
2016-01-29T04:12:15.439Z,55.89
2016-01-29T04:13:15.508Z,55.89
2016-01-29T04:14:15.557Z,55.89
2016-01-29T04:15:15.622Z,55.89
2016-01-29T04:16:15.671Z,55.96
2016-01-29T04:17:15.721Z,55.99
2016-01-29T04:18:15.788Z,55.99
2016-01-29T04:19:15.852Z,55.22
2016-01-29T04:20:15.902Z,55.99
2016-01-29T04:21:15.968Z,55.89
2016-01-29T04:22:16.017Z,55.89
2016-01-29T04:23:16.067Z,55.89
2016-01-29T04:24:16.117Z,56.08
2016-01-29T04:25:16.168Z,55.79
2016-01-29T04:26:16.232Z,55.22
2016-01-29T04:27:16.298Z,55.89
2016-01-29T04:28:16.352Z,55.6
2016-01-29T04:29:16.401Z,55.79
2016-01-29T04:30:16.483Z,55.32
2016-01-29T04:31:16.517Z,55.32
2016-01-29T04:32:16.567Z,55.29
2016-01-29T04:33:16.617Z,55.99
2016-01-29T04:34:16.681Z,55.51
2016-01-29T04:35:16.748Z,55.79
2016-01-29T04:36:16.812Z,55.69
2016-01-29T04:37:16.847Z,55.29
2016-01-29T04:38:16.913Z,55.57
2016-01-29T04:39:16.962Z,55.67
2016-01-29T04:40:17.027Z,55.57
2016-01-29T04:41:17.076Z,55.51
2016-01-29T04:42:17.143Z,55.67
2016-01-29T04:43:17.192Z,55.57
2016-01-29T04:44:17.241Z,55.57
2016-01-29T04:45:17.308Z,55.67
2016-01-29T04:46:17.358Z,55.77
2016-01-29T04:47:17.408Z,55.67
2016-01-29T04:48:17.472Z,55.47
2016-01-29T04:49:17.553Z,55.67
2016-01-29T04:50:17.572Z,55.67
2016-01-29T04:51:17.636Z,55.67
2016-01-29T04:52:17.686Z,55.77
2016-01-29T04:53:17.736Z,55.86
2016-01-29T04:54:17.802Z,55.77
2016-01-29T04:55:17.866Z,55.67
2016-01-29T04:56:17.916Z,55.77
2016-01-29T04:57:17.966Z,55.57
2016-01-29T04:58:18.030Z,55.77
2016-01-29T04:59:18.087Z,55.86
2016-01-29T05:00:18.137Z,55.67
2016-01-29T05:01:18.201Z,55.57
2016-01-29T05:02:18.267Z,55.77
2016-01-29T05:03:18.316Z,55.57
2016-01-29T05:04:18.382Z,55.57
2016-01-29T05:05:18.431Z,55.57
2016-01-29T05:06:18.481Z,55.67
2016-01-29T05:07:18.547Z,55.67
2016-01-29T05:08:18.581Z,55.57
2016-01-29T05:09:18.646Z,55.57
2016-01-29T05:10:18.695Z,55.57
2016-01-29T05:11:18.762Z,55.57
2016-01-29T05:12:18.811Z,55.57
2016-01-29T05:13:18.860Z,55.77
2016-01-29T05:14:18.927Z,55.86
2016-01-29T05:15:18.978Z,56.15
2016-01-29T05:16:19.028Z,55.77
2016-01-29T05:17:19.092Z,55.47
2016-01-29T05:18:19.142Z,55.47
2016-01-29T05:19:19.209Z,55.77
2016-01-29T05:20:19.274Z,55.96
2016-01-29T05:21:19.339Z,55.86
2016-01-29T05:22:19.374Z,55.67
2016-01-29T05:23:19.422Z,55.57
2016-01-29T05:24:19.474Z,55.67
2016-01-29T05:25:19.539Z,55.86
2016-01-29T05:26:19.604Z,56.15
2016-01-29T05:27:19.653Z,55.67
2016-01-29T05:28:19.705Z,55.57
2016-01-29T05:29:19.770Z,55.67
2016-01-29T05:30:19.819Z,55.86
2016-01-29T05:31:19.878Z,55.67
2016-01-29T05:32:19.944Z,55.57
2016-01-29T05:33:19.993Z,52.02
2016-01-29T05:34:20.042Z,51.35
2016-01-29T05:35:20.092Z,52
2016-01-29T05:36:20.159Z,53.05
2016-01-29T05:37:20.208Z,54.3
2016-01-29T05:38:20.273Z,55.71
2016-01-29T05:39:20.322Z,55.62
2016-01-29T05:40:20.376Z,56.38
2016-01-29T05:41:20.457Z,56.67
2016-01-29T05:42:20.490Z,58.11
2016-01-29T05:43:20.557Z,58.39
2016-01-29T05:44:20.607Z,58.11
2016-01-29T05:45:20.656Z,56.67
2016-01-29T05:46:20.706Z,55.71
2016-01-29T05:47:20.756Z,55.62
2016-01-29T05:48:20.822Z,55.9
2016-01-29T05:49:20.887Z,54.85
2016-01-29T05:50:20.937Z,53.99
2016-01-29T05:51:20.986Z,53.89
2016-01-29T05:52:21.053Z,54.08
2016-01-29T05:53:20.946Z,53.6
2016-01-29T05:54:21.152Z,53.5
2016-01-29T05:55:21.217Z,54.17
2016-01-29T05:56:21.267Z,53.41
2016-01-29T05:57:21.319Z,53.41
2016-01-29T05:58:21.368Z,53.6
2016-01-29T05:59:21.449Z,52.55
2016-01-29T06:00:21.484Z,52.64
2016-01-29T06:01:21.534Z,52.36
2016-01-29T06:02:21.608Z,51.59
2016-01-29T06:03:21.485Z,52.16
2016-01-29T06:04:21.706Z,52.93
2016-01-29T06:05:21.755Z,51.97
2016-01-29T06:06:21.825Z,52.16
2016-01-29T06:07:21.874Z,52.45
2016-01-29T06:08:21.924Z,51.4
2016-01-29T06:09:21.990Z,52.16
2016-01-29T06:10:21.290Z,52.83
2016-01-29T06:11:22.104Z,52.83
2016-01-29T06:12:22.173Z,52.83
2016-01-29T06:13:22.207Z,52.93
2016-01-29T06:14:22.257Z,52.93
2016-01-29T06:15:22.322Z,53.41
2016-01-29T06:16:22.355Z,53.31
2016-01-29T06:17:22.421Z,52.16
2016-01-29T06:18:22.486Z,52.93
2016-01-29T06:19:22.520Z,52.64
2016-01-29T06:20:22.601Z,52.26
2016-01-29T06:21:22.634Z,51.97
2016-01-29T06:22:22.534Z,53.58
2016-01-29T06:23:22.754Z,54.56
2016-01-29T06:24:22.803Z,54.37
2016-01-29T06:25:22.853Z,54.56
2016-01-29T06:26:22.920Z,54.94
2016-01-29T06:27:22.969Z,54.85
2016-01-29T06:28:23.065Z,54.66
2016-01-29T06:29:23.084Z,54.85
2016-01-29T06:30:23.138Z,54.66
2016-01-29T06:31:23.187Z,54.94
2016-01-29T06:32:23.240Z,54.75
2016-01-29T06:33:23.290Z,54.56
2016-01-29T06:34:23.359Z,54.94
2016-01-29T06:35:23.439Z,53.12
2016-01-29T06:36:23.473Z,50.15
2016-01-29T06:37:23.523Z,47.37
2016-01-29T06:38:23.589Z,46.22
2016-01-29T06:39:23.638Z,45.16
2016-01-29T06:40:23.687Z,44.49
2016-01-29T06:41:23.738Z,44.09
2016-01-29T06:42:23.803Z,44.18
2016-01-29T06:43:23.853Z,43.1
2016-01-29T06:44:23.918Z,43.59
2016-01-29T06:45:23.968Z,43.97
2016-01-29T06:46:24.018Z,43.39
2016-01-29T06:47:24.067Z,43.59
2016-01-29T06:48:24.133Z,43.66
2016-01-29T06:49:24.198Z,44.33
2016-01-29T06:50:24.248Z,45.29
2016-01-29T06:51:24.284Z,45.76
2016-01-29T06:52:24.350Z,47.2
2016-01-29T06:53:24.400Z,47.87
2016-01-29T06:54:24.464Z,48.25
2016-01-29T06:55:24.515Z,48.66
2016-01-29T06:56:24.564Z,48.75
2016-01-29T06:57:24.615Z,49.14
2016-01-29T06:58:24.695Z,49.24
2016-01-29T06:59:24.730Z,49.62
2016-01-29T07:00:24.779Z,49.62
2016-01-29T07:01:24.845Z,49.43
2016-01-29T07:02:24.896Z,49.84
2016-01-29T07:03:24.945Z,49.84
2016-01-29T07:04:24.995Z,49.84
2016-01-29T07:05:25.076Z,50.03
2016-01-29T07:06:25.111Z,49.84
2016-01-29T07:07:25.159Z,50.12
2016-01-29T07:08:25.226Z,50.51
2016-01-29T07:09:25.306Z,49.93
2016-01-29T07:10:25.324Z,49.84
2016-01-29T07:11:25.390Z,50.7
2016-01-29T07:12:25.439Z,50.41
2016-01-29T07:13:25.490Z,50.32
2016-01-29T07:14:25.540Z,50.34
2016-01-29T07:15:25.605Z,50.32
2016-01-29T07:16:25.654Z,50.34
2016-01-29T07:17:25.735Z,50.05
2016-01-29T07:18:25.770Z,50.63
2016-01-29T07:19:25.825Z,50.63
2016-01-29T07:20:25.875Z,50.63
2016-01-29T07:21:25.941Z,50.73
2016-01-29T07:22:25.991Z,50.53
2016-01-29T07:23:26.040Z,50.53
2016-01-29T07:24:26.106Z,50.53
2016-01-29T07:25:26.156Z,46.03
2016-01-29T07:26:26.206Z,43.44
2016-01-29T07:27:26.255Z,42.57
2016-01-29T07:28:26.321Z,42.94
2016-01-29T07:29:26.371Z,42.74
2016-01-29T07:30:26.435Z,42.24
2016-01-29T07:31:26.485Z,42.14
2016-01-29T07:32:26.534Z,42.53
2016-01-29T07:33:26.601Z,43.2
2016-01-29T07:34:26.643Z,43.47
2016-01-29T07:35:26.711Z,43.37
2016-01-29T07:36:26.761Z,44.13
2016-01-29T07:37:26.810Z,43.63
2016-01-29T07:38:26.860Z,44.69
2016-01-29T07:39:26.909Z,46.03
2016-01-29T07:40:26.974Z,46.98
2016-01-29T07:41:27.027Z,51.1
2016-01-29T07:42:27.092Z,53.11
2016-01-29T07:43:27.127Z,54.19
2016-01-29T07:44:27.191Z,54
2016-01-29T07:45:27.242Z,53.91
2016-01-29T07:46:27.306Z,54.38
2016-01-29T07:47:27.372Z,54.38
2016-01-29T07:48:27.411Z,54.57
2016-01-29T07:49:27.462Z,54.48
2016-01-29T07:50:27.526Z,53.04
2016-01-29T07:51:27.576Z,53.26
2016-01-29T07:52:27.641Z,53.07
2016-01-29T07:53:27.723Z,51.15
2016-01-29T07:54:27.726Z,51.54
2016-01-29T07:55:27.791Z,51.15
2016-01-29T07:56:27.091Z,51.44
2016-01-29T07:57:27.906Z,52.01
2016-01-29T07:58:27.972Z,52.2
2016-01-29T07:59:28.022Z,52.59
2016-01-29T08:00:28.054Z,52.11
2016-01-29T08:01:28.121Z,50.96
2016-01-29T08:02:28.171Z,51.15
2016-01-29T08:03:28.220Z,51.06
2016-01-29T08:04:28.284Z,50.99
2016-01-29T08:05:28.334Z,51.18
2016-01-29T08:06:28.401Z,50.89
2016-01-29T08:07:28.450Z,50.6
2016-01-29T08:08:28.499Z,50.89
2016-01-29T08:09:28.549Z,50.51
2016-01-29T08:10:28.619Z,50.6
2016-01-29T08:11:28.699Z,50.32
2016-01-29T08:12:28.717Z,50.51
2016-01-29T08:13:28.767Z,50.79
2016-01-29T08:14:28.821Z,50.22
2016-01-29T08:15:28.729Z,50.22
2016-01-29T08:16:28.951Z,50.41
2016-01-29T08:17:29.000Z,50.12
2016-01-29T08:18:29.052Z,49.93
2016-01-29T08:19:29.101Z,50.12
2016-01-29T08:20:29.150Z,50.41
2016-01-29T08:21:29.216Z,50.51
2016-01-29T08:22:29.284Z,50.6
2016-01-29T08:23:29.365Z,50.03
2016-01-29T08:24:29.367Z,50.51
2016-01-29T08:25:29.434Z,50.12
2016-01-29T08:26:29.484Z,50.32
2016-01-29T08:27:29.549Z,50.41
2016-01-29T08:28:29.598Z,50.22
2016-01-29T08:29:29.648Z,50.22
2016-01-29T08:30:29.715Z,50.03
2016-01-29T08:31:29.779Z,50.22
2016-01-29T08:32:29.810Z,50.22
2016-01-29T08:33:29.876Z,49.93
2016-01-29T08:34:29.927Z,49.74
2016-01-29T08:35:29.976Z,50.6
2016-01-29T08:36:30.040Z,50.7
2016-01-29T08:37:30.091Z,50.22
2016-01-29T08:38:30.157Z,49.93
2016-01-29T08:39:30.207Z,50.32
2016-01-29T08:40:30.256Z,49.55
2016-01-29T08:41:30.302Z,49.93
2016-01-29T08:42:30.340Z,50.03
2016-01-29T08:43:30.391Z,50.79
2016-01-29T08:44:30.427Z,49.45
2016-01-29T08:45:30.479Z,50.7
2016-01-29T08:46:30.519Z,50.7
2016-01-29T08:47:30.563Z,49.93
2016-01-29T08:48:30.607Z,50.12
2016-01-29T08:49:30.669Z,50.79
2016-01-29T08:50:30.715Z,50.41
2016-01-29T08:51:30.761Z,50.12
2016-01-29T08:52:30.823Z,50.41
2016-01-29T08:53:30.871Z,50.12
2016-01-29T08:54:30.763Z,50.7
2016-01-29T08:55:30.997Z,50.22
2016-01-29T08:56:31.029Z,49.45
2016-01-29T08:57:31.095Z,49.84
2016-01-29T08:58:31.159Z,50.6
2016-01-29T08:59:31.194Z,49.74
2016-01-29T09:00:31.243Z,50.41
2016-01-29T09:01:31.292Z,49.93
2016-01-29T09:02:31.362Z,50.22
2016-01-29T09:03:31.413Z,50.6
2016-01-29T09:04:31.462Z,50.6
2016-01-29T09:05:31.527Z,50.22
2016-01-29T09:06:31.577Z,50.12
2016-01-29T09:07:31.627Z,50.32
2016-01-29T09:08:31.675Z,49.84
2016-01-29T09:09:31.741Z,49.74
2016-01-29T09:10:31.791Z,49.84
2016-01-29T09:11:31.855Z,50.41
2016-01-29T09:12:31.905Z,50.32
2016-01-29T09:13:31.961Z,50.6
2016-01-29T09:14:32.026Z,50.12
2016-01-29T09:15:32.076Z,50.03
2016-01-29T09:16:32.125Z,50.6
2016-01-29T09:17:32.179Z,50.41
2016-01-29T09:18:32.228Z,50.51
2016-01-29T09:19:32.284Z,50.22
2016-01-29T09:20:32.348Z,50.32
2016-01-29T09:21:32.399Z,50.79
2016-01-29T09:22:32.479Z,50.7
2016-01-29T09:23:32.512Z,50.41
2016-01-29T09:24:32.578Z,50.41
2016-01-29T09:25:32.614Z,50.22
2016-01-29T09:26:32.679Z,50.03
2016-01-29T09:27:32.728Z,50.51
2016-01-29T09:28:32.778Z,50.51
2016-01-29T09:29:32.938Z,49.84
2016-01-29T09:30:32.895Z,49.93
2016-01-29T09:31:32.959Z,50.22
2016-01-29T09:32:33.012Z,50.12
2016-01-29T09:33:33.095Z,50.51
2016-01-29T09:34:33.114Z,50.03
2016-01-29T09:35:33.163Z,50.32
2016-01-29T09:36:33.212Z,50.22
2016-01-29T09:37:33.280Z,50.12
2016-01-29T09:38:33.329Z,50.32
2016-01-29T09:39:33.393Z,50.32
2016-01-29T09:40:33.459Z,50.12
2016-01-29T09:41:33.496Z,50.41
2016-01-29T09:42:33.546Z,50.6
2016-01-29T09:43:33.610Z,50.22
2016-01-29T09:44:33.660Z,50.12
2016-01-29T09:45:33.775Z,50.12
2016-01-29T09:46:33.777Z,50.22
2016-01-29T09:47:33.827Z,49.65
2016-01-29T09:48:33.877Z,50.12
2016-01-29T09:49:33.944Z,50.12
2016-01-29T09:50:34.040Z,50.32
2016-01-29T09:51:34.043Z,50.41
2016-01-29T09:52:34.092Z,49.84
2016-01-29T09:53:34.159Z,50.41
2016-01-29T09:54:34.211Z,50.51
2016-01-29T09:55:34.260Z,50.32
2016-01-29T09:56:34.325Z,50.6
2016-01-29T09:57:34.390Z,49.93
2016-01-29T09:58:34.426Z,49.84
2016-01-29T09:59:34.474Z,50.12
2016-01-29T10:00:34.541Z,50.12
2016-01-29T10:01:34.590Z,49.93
2016-01-29T10:02:34.656Z,50.12
2016-01-29T10:03:34.695Z,50.12
2016-01-29T10:04:34.762Z,49.93
2016-01-29T10:05:34.812Z,50.32
2016-01-29T10:06:34.862Z,49.74
2016-01-29T10:07:34.927Z,49.84
2016-01-29T10:08:34.976Z,49.93
2016-01-29T10:09:35.027Z,49.93
2016-01-29T10:10:35.076Z,49.65
2016-01-29T10:11:35.157Z,49.74
2016-01-29T10:12:35.206Z,49.93
2016-01-29T10:13:35.256Z,49.84
2016-01-29T10:14:35.306Z,49.74
2016-01-29T10:15:35.354Z,49.93
2016-01-29T10:16:35.406Z,49.93
2016-01-29T10:17:35.456Z,50.03
2016-01-29T10:18:35.523Z,50.12
2016-01-29T10:19:35.650Z,49.93
2016-01-29T10:20:35.637Z,49.84
2016-01-29T10:21:35.749Z,49.84
2016-01-29T10:22:35.753Z,49.84
2016-01-29T10:23:35.802Z,50.22
2016-01-29T10:24:35.851Z,49.96
2016-01-29T10:25:35.918Z,49.65
2016-01-29T10:26:35.966Z,49.84
2016-01-29T10:27:36.016Z,49.93
2016-01-29T10:28:36.081Z,49.65
2016-01-29T10:29:36.131Z,49.84
2016-01-29T10:30:36.181Z,49.74
2016-01-29T10:31:36.230Z,49.93
2016-01-29T10:32:36.297Z,49.84
2016-01-29T10:33:36.377Z,49.84
2016-01-29T10:34:36.398Z,49.86
2016-01-29T10:35:36.446Z,50.03
2016-01-29T10:36:36.516Z,49.84
2016-01-29T10:37:36.566Z,50.03
2016-01-29T10:38:36.616Z,49.96
2016-01-29T10:39:36.680Z,49.93
2016-01-29T10:40:36.729Z,49.93
2016-01-29T10:41:36.781Z,49.74
2016-01-29T10:42:36.830Z,49.96
2016-01-29T10:43:36.895Z,49.45
2016-01-29T10:44:36.944Z,49.48
2016-01-29T10:45:37.012Z,49.84
2016-01-29T10:46:37.076Z,49.93
2016-01-29T10:47:37.109Z,49.65
2016-01-29T10:48:37.159Z,50.03
2016-01-29T10:49:37.226Z,49.74
2016-01-29T10:50:37.291Z,49.86
2016-01-29T10:51:37.324Z,49.84
2016-01-29T10:52:37.391Z,50.12
2016-01-29T10:53:37.441Z,49.84
2016-01-29T10:54:37.491Z,50.12
2016-01-29T10:55:37.555Z,49.65
2016-01-29T10:56:37.620Z,50.03
2016-01-29T10:57:37.672Z,49.84
2016-01-29T10:58:37.720Z,50.03
2016-01-29T10:59:37.770Z,49.93
2016-01-29T11:00:37.819Z,50.12
2016-01-29T11:01:37.886Z,49.84
2016-01-29T11:02:37.936Z,49.93
2016-01-29T11:03:37.989Z,49.93
2016-01-29T11:04:38.055Z,50.03
2016-01-29T11:05:38.093Z,49.93
2016-01-29T11:06:38.174Z,49.74
2016-01-29T11:07:38.223Z,50.12
2016-01-29T11:08:38.273Z,50.03
2016-01-29T11:09:38.339Z,49.84
2016-01-29T11:10:38.374Z,49.45
2016-01-29T11:11:38.438Z,50.12
2016-01-29T11:12:38.488Z,49.93
2016-01-29T11:13:38.541Z,49.93
2016-01-29T11:14:38.590Z,50.03
2016-01-29T11:15:38.655Z,49.26
2016-01-29T11:16:38.705Z,50.03
2016-01-29T11:17:38.756Z,50.12
2016-01-29T11:18:38.820Z,50.32
2016-01-29T11:19:38.869Z,50.12
2016-01-29T11:20:38.919Z,50.6
2016-01-29T11:21:38.987Z,50.12
2016-01-29T11:22:39.037Z,50.41
2016-01-29T11:23:39.102Z,50.12
2016-01-29T11:24:39.152Z,50.03
2016-01-29T11:25:39.203Z,50.51
2016-01-29T11:26:39.251Z,50.51
2016-01-29T11:27:39.317Z,50.12
2016-01-29T11:28:39.382Z,50.22
2016-01-29T11:29:39.417Z,49.84
2016-01-29T11:30:39.469Z,50.12
2016-01-29T11:31:39.518Z,50.12
2016-01-29T11:32:39.584Z,50.32
2016-01-29T11:33:39.642Z,50.41
2016-01-29T11:34:39.691Z,50.22
2016-01-29T11:35:39.741Z,50.12
2016-01-29T11:36:39.807Z,49.93
2016-01-29T11:37:39.871Z,49.93
2016-01-29T11:38:39.922Z,49.84
2016-01-29T11:39:39.971Z,50.6
2016-01-29T11:40:40.022Z,50.41
2016-01-29T11:41:40.071Z,49.93
2016-01-29T11:42:40.136Z,49.93
2016-01-29T11:43:40.186Z,49.84
2016-01-29T11:44:40.251Z,50.32
2016-01-29T11:45:40.302Z,50.03
2016-01-29T11:46:40.351Z,50.03
2016-01-29T11:47:40.401Z,49.84
2016-01-29T11:48:40.466Z,50.12
2016-01-29T11:49:40.517Z,50.03
2016-01-29T11:50:40.565Z,50.03
2016-01-29T11:51:40.615Z,50.03
2016-01-29T11:52:40.697Z,50.03
2016-01-29T11:53:40.731Z,49.93
2016-01-29T11:54:40.797Z,49.93
2016-01-29T11:55:40.862Z,49.93
2016-01-29T11:56:40.897Z,50.12
2016-01-29T11:57:40.961Z,50.12
2016-01-29T11:58:41.010Z,49.93
2016-01-29T11:59:41.060Z,50.03
2016-01-29T12:00:41.113Z,49.93
2016-01-29T12:01:41.178Z,50.12
2016-01-29T12:02:41.228Z,49.84
2016-01-29T12:03:41.294Z,49.55
2016-01-29T12:04:41.330Z,50.22
2016-01-29T12:05:41.396Z,50.22
2016-01-29T12:06:41.451Z,49.65
2016-01-29T12:07:41.616Z,49.93
2016-01-29T12:08:41.556Z,49.84
2016-01-29T12:09:41.641Z,50.22
2016-01-29T12:10:41.690Z,50.03
2016-01-29T12:11:41.726Z,50.32
2016-01-29T12:12:41.776Z,50.32
2016-01-29T12:13:41.825Z,49.84
2016-01-29T12:14:41.890Z,49.74
2016-01-29T12:15:41.955Z,50.22
2016-01-29T12:16:42.005Z,49.93
2016-01-29T12:17:42.055Z,49.84
2016-01-29T12:18:42.104Z,50.12
2016-01-29T12:19:42.158Z,49.93
2016-01-29T12:20:42.224Z,50.32
2016-01-29T12:21:42.274Z,50.12
2016-01-29T12:22:42.338Z,49.93
2016-01-29T12:23:42.388Z,49.93
2016-01-29T12:24:42.438Z,49.74
2016-01-29T12:25:42.502Z,49.93
2016-01-29T12:26:42.599Z,50.12
2016-01-29T12:27:42.603Z,49.93
2016-01-29T12:28:42.653Z,50.03
2016-01-29T12:29:42.717Z,50.03
2016-01-29T12:30:42.782Z,50.12
2016-01-29T12:31:42.834Z,49.93
2016-01-29T12:32:42.884Z,49.84
2016-01-29T12:33:42.932Z,49.84
2016-01-29T12:34:42.987Z,49.55
2016-01-29T12:35:43.038Z,49.84
2016-01-29T12:36:43.103Z,49.65
2016-01-29T12:37:43.167Z,49.36
2016-01-29T12:38:43.218Z,49.65
2016-01-29T12:39:43.251Z,49.26
2016-01-29T12:40:43.318Z,49.16
2016-01-29T12:41:43.369Z,49.26
2016-01-29T12:42:43.419Z,49.45
2016-01-29T12:43:43.500Z,49.45
2016-01-29T12:44:43.800Z,49.26
2016-01-29T12:45:43.586Z,49.26
2016-01-29T12:46:43.635Z,49.45
2016-01-29T12:47:43.701Z,49.26
2016-01-29T12:48:43.766Z,49.26
2016-01-29T12:49:43.816Z,49.36
2016-01-29T12:50:43.866Z,49.45
2016-01-29T12:51:43.947Z,49.45
2016-01-29T12:52:43.980Z,49.26
2016-01-29T12:53:44.030Z,49.36
2016-01-29T12:54:44.081Z,49.45